Torgovy Bridge — A8HA8 — position and weather

sailwx.info

Track history (hours):
 
Tides and Currents Weather Stations Pressure Air Temp Water Temp Dewpoint Dewpoint Depression Visibility Wind Speed Wind Dir Waves Ship Positions

Torgovy Bridge

Last reported at 2018-Feb-14 23:08 UTC. Time now 2018-Feb-19 04:30 UTC.
Position S 33°48' E 151°31'.

Length 182 m; draft 7.6 m.

Type: Ship. MMSI: 636012690.

Date/timePositionNaut miles runAvg speedWind from/ knotsBaromVisibWave heightAir tempDewpointWater temp
2018-Feb-14 23:08S 33°48' E 151°31'6 0.1
2018-Feb-12 21:12S 33°52' E 151°25'  
2018-Feb-07 09:30S 38°28' E 144°32'1513.7
2018-Feb-07 08:24S 38°42' E 144°41'513.9
2018-Feb-07 08:00S 38°47' E 144°43'713.5
2018-Feb-07 07:30S 38°54' E 144°44'713.2
2018-Feb-07 07:00S 39°00' E 144°44'610.4
2018-Feb-07 06:28S 39°06' E 144°44'0 0.3
2018-Feb-07 05:50S 39°06' E 144°44'310.3
2018-Feb-07 05:29S 39°02' E 144°44'7 3.5
2018-Feb-07 03:20S 39°08' E 144°49'5 6.5
2018-Feb-07 02:29S 39°14' E 144°51'3 6.6
2018-Feb-07 01:59S 39°17' E 144°52'3 6.5
2018-Feb-07 01:30S 39°20' E 144°53'3 6.3
2018-Feb-07 01:00S 39°23' E 144°54'3 6.3
2018-Feb-07 00:30S 39°26' E 144°55'2 2.5
2018-Feb-06 23:30S 39°24' E 144°58'3 6.3
2018-Feb-06 23:00S 39°21' E 144°58'3 6.3
2018-Feb-06 22:30S 39°18' E 144°59'3 2.3
2018-Feb-06 21:02S 39°16' E 145°03'0 6.6
2018-Feb-06 20:59S 39°17' E 145°03'3 6.7
2018-Feb-06 20:30S 39°20' E 145°05'5 9.5
2018-Feb-06 19:58S 39°24' E 145°08'613.0
2018-Feb-06 19:30S 39°29' E 145°12'17 7.0
2018-Feb-06 17:07S 39°44' E 145°23'7 5.6
2018-Feb-06 15:54S 39°50' E 145°27'56 6.9
2018-Feb-06 07:41S 40°39' E 146°03'1 6.5
2018-Feb-06 07:28S 40°40' E 146°04'3 6.5
2018-Feb-06 06:59S 40°43' E 146°06'5 6.5
2018-Feb-06 06:17S 40°47' E 146°09'2 6.5
2018-Feb-06 05:59S 40°49' E 146°10'3 7.1
2018-Feb-06 05:30S 40°52' E 146°12'1110.9
2018-Feb-06 04:29S 41°01' E 146°19'612.3
2018-Feb-06 03:57S 41°07' E 146°23'4 0.2
2018-Feb-05 05:30S 41°11' E 146°22'4 6.1
2018-Feb-05 04:52S 41°07' E 146°24'3 7.7
2018-Feb-05 04:30S 41°05' E 146°23'  
Track history (hours):
 
Tides and Currents Weather Stations Pressure Air Temp Water Temp Dewpoint Dewpoint Depression Visibility Wind Speed Wind Dir Waves Ship Positions

Torgovy Bridge

Last reported at 2018-Feb-14 23:08 UTC. Time now 2018-Feb-19 04:30 UTC.
Position S 33°48' E 151°31'.

Length 182 m; draft 7.6 m.

Type: Ship. MMSI: 636012690.

Date/timePositionNaut miles runAvg speedWind from/ knotsBaromVisibWave heightAir tempDewpointWater temp
2018-Feb-14 23:08S 33°48' E 151°31'6 0.1
2018-Feb-12 21:12S 33°52' E 151°25'  
2018-Feb-07 09:30S 38°28' E 144°32'1513.7
2018-Feb-07 08:24S 38°42' E 144°41'513.9
2018-Feb-07 08:00S 38°47' E 144°43'713.5
2018-Feb-07 07:30S 38°54' E 144°44'713.2
2018-Feb-07 07:00S 39°00' E 144°44'610.4
2018-Feb-07 06:28S 39°06' E 144°44'0 0.3
2018-Feb-07 05:50S 39°06' E 144°44'310.3
2018-Feb-07 05:29S 39°02' E 144°44'7 3.5
2018-Feb-07 03:20S 39°08' E 144°49'5 6.5
2018-Feb-07 02:29S 39°14' E 144°51'3 6.6
2018-Feb-07 01:59S 39°17' E 144°52'3 6.5
2018-Feb-07 01:30S 39°20' E 144°53'3 6.3
2018-Feb-07 01:00S 39°23' E 144°54'3 6.3
2018-Feb-07 00:30S 39°26' E 144°55'2 2.5
2018-Feb-06 23:30S 39°24' E 144°58'3 6.3
2018-Feb-06 23:00S 39°21' E 144°58'3 6.3
2018-Feb-06 22:30S 39°18' E 144°59'3 2.3
2018-Feb-06 21:02S 39°16' E 145°03'0 6.6
2018-Feb-06 20:59S 39°17' E 145°03'3 6.7
2018-Feb-06 20:30S 39°20' E 145°05'5 9.5
2018-Feb-06 19:58S 39°24' E 145°08'613.0
2018-Feb-06 19:30S 39°29' E 145°12'17 7.0
2018-Feb-06 17:07S 39°44' E 145°23'7 5.6
2018-Feb-06 15:54S 39°50' E 145°27'56 6.9
2018-Feb-06 07:41S 40°39' E 146°03'1 6.5
2018-Feb-06 07:28S 40°40' E 146°04'3 6.5
2018-Feb-06 06:59S 40°43' E 146°06'5 6.5
2018-Feb-06 06:17S 40°47' E 146°09'2 6.5
2018-Feb-06 05:59S 40°49' E 146°10'3 7.1
2018-Feb-06 05:30S 40°52' E 146°12'1110.9
2018-Feb-06 04:29S 41°01' E 146°19'612.3
2018-Feb-06 03:57S 41°07' E 146°23'4 0.2
2018-Feb-05 05:30S 41°11' E 146°22'4 6.1
2018-Feb-05 04:52S 41°07' E 146°24'3 7.7
2018-Feb-05 04:30S 41°05' E 146°23'  

Dump ship's entire track history